createdAt,value
2018-03-07T00:01:33.229Z,118.80
2018-03-07T00:04:04.206Z,115.93
2018-03-07T00:06:35.240Z,115.10
2018-03-07T00:09:06.215Z,108.93
2018-03-07T00:11:37.200Z,107.13
2018-03-07T00:14:08.198Z,112.03
2018-03-07T00:16:39.209Z,114.63
2018-03-07T00:19:10.201Z,113.10
2018-03-07T00:21:41.189Z,108.03
2018-03-07T00:24:12.181Z,112.07
2018-03-07T00:26:43.151Z,106.93
2018-03-07T00:29:14.165Z,110.27
2018-03-07T00:31:45.148Z,106.57
2018-03-07T00:34:16.121Z,110.77
2018-03-07T00:36:47.088Z,120.13
2018-03-07T00:39:18.092Z,107.93
2018-03-07T00:41:49.126Z,112.20
2018-03-07T00:44:20.073Z,110.30
2018-03-07T00:46:51.097Z,113.53
2018-03-07T00:49:22.088Z,112.97
2018-03-07T00:51:53.086Z,113.23
2018-03-07T00:54:24.097Z,114.20
2018-03-07T00:56:55.075Z,126.07
2018-03-07T00:59:26.052Z,125.93
2018-03-07T01:01:57.027Z,115.60
2018-03-07T01:04:28.033Z,119.67
2018-03-07T01:06:59.066Z,104.70
2018-03-07T01:09:29.986Z,128.13
2018-03-07T01:12:01.020Z,104.47
2018-03-07T01:14:31.999Z,111.20
2018-03-07T01:17:02.956Z,122.67
2018-03-07T01:19:33.910Z,103.30
2018-03-07T01:22:04.871Z,106.33
2018-03-07T01:24:35.875Z,107.57
2018-03-07T01:27:06.868Z,109.73
2018-03-07T01:29:37.910Z,107.10
2018-03-07T01:32:08.902Z,118.67
2018-03-07T01:34:39.905Z,114.07
2018-03-07T01:37:10.880Z,118.77
2018-03-07T01:39:41.849Z,106.30
2018-03-07T01:42:12.828Z,116.87
2018-03-07T01:44:50.876Z,104.87
2018-03-07T01:47:21.852Z,108.83
2018-03-07T01:49:52.893Z,107.63
2018-03-07T01:52:23.888Z,106.23
2018-03-07T01:54:54.859Z,110.60
2018-03-07T01:57:25.872Z,96.10
2018-03-07T01:59:56.878Z,105.93
2018-03-07T02:02:27.863Z,107.20
2018-03-07T02:04:58.881Z,101.87
2018-03-07T02:07:29.913Z,98.93
2018-03-07T02:10:00.885Z,96.40
2018-03-07T02:12:31.869Z,99.93
2018-03-07T02:15:02.909Z,99.90
2018-03-07T02:17:33.862Z,98.03
2018-03-07T02:20:04.851Z,83.23
2018-03-07T02:22:35.807Z,104.07
2018-03-07T02:25:09.760Z,91.90
2018-03-07T02:27:40.711Z,94.50
2018-03-07T02:30:11.702Z,90.53
2018-03-07T02:32:42.709Z,97.97
2018-03-07T02:35:13.672Z,103.20
2018-03-07T02:37:44.676Z,98.87
2018-03-07T02:40:15.652Z,88.27
2018-03-07T02:42:46.648Z,94.50
2018-03-07T02:45:17.654Z,87.33
2018-03-07T02:47:48.644Z,95.20
2018-03-07T02:50:19.663Z,91.20
2018-03-07T02:52:50.659Z,83.50
2018-03-07T02:55:21.649Z,84.80
2018-03-07T02:57:52.647Z,79.70
2018-03-07T03:00:23.674Z,89.83
2018-03-07T03:02:54.645Z,78.53
2018-03-07T03:05:25.645Z,79.97
2018-03-07T03:07:56.640Z,79.90
2018-03-07T03:10:27.646Z,80.10
2018-03-07T03:12:58.695Z,82.17
2018-03-07T03:15:29.655Z,71.83
2018-03-07T03:18:00.673Z,77.87
2018-03-07T03:20:31.662Z,75.53
2018-03-07T03:23:02.688Z,75.57
2018-03-07T03:25:33.669Z,75.53
2018-03-07T03:28:04.708Z,70.57
2018-03-07T03:30:35.732Z,67.17
2018-03-07T03:33:06.679Z,68.93
2018-03-07T03:35:37.681Z,67.07
2018-03-07T03:38:08.672Z,70.30
2018-03-07T03:40:39.701Z,68.10
2018-03-07T03:43:10.675Z,73.77
2018-03-07T03:45:41.738Z,69.73
2018-03-07T03:48:12.697Z,74.07
2018-03-07T03:50:43.729Z,73.13
2018-03-07T03:53:14.729Z,67.80
2018-03-07T03:55:45.767Z,75.47
2018-03-07T03:58:16.781Z,75.43
2018-03-07T04:00:47.735Z,70.97
2018-03-07T04:03:18.764Z,68.03
2018-03-07T04:05:49.763Z,80.83
2018-03-07T04:08:20.741Z,70.30
2018-03-07T04:10:51.724Z,79.73
2018-03-07T04:13:22.711Z,78.80
2018-03-07T04:15:53.709Z,74.90
2018-03-07T04:18:24.693Z,77.77
2018-03-07T04:20:55.698Z,74.50
2018-03-07T04:23:26.704Z,72.67
2018-03-07T04:25:57.713Z,74.87
2018-03-07T04:28:28.698Z,73.93
2018-03-07T04:30:59.750Z,70.67
2018-03-07T04:33:30.750Z,68.43
2018-03-07T04:36:01.724Z,76.07
2018-03-07T04:38:32.710Z,68.27
2018-03-07T04:41:03.745Z,73.50
2018-03-07T04:43:34.716Z,77.47
2018-03-07T04:46:05.771Z,73.67
2018-03-07T04:48:36.759Z,72.07
2018-03-07T04:51:07.809Z,75.40
2018-03-07T04:53:38.895Z,70.43
2018-03-07T04:56:09.856Z,71.70
2018-03-07T04:58:40.832Z,76.17
2018-03-07T05:01:11.902Z,74.07
2018-03-07T05:03:42.859Z,69.90
2018-03-07T05:06:14.095Z,72.67
2018-03-07T05:08:45.065Z,62.10
2018-03-07T05:11:16.090Z,65.43
2018-03-07T05:13:47.082Z,60.73
2018-03-07T05:16:18.078Z,65.53
2018-03-07T05:18:49.060Z,66.63
2018-03-07T05:21:20.053Z,62.83
2018-03-07T05:23:51.031Z,61.13
2018-03-07T05:26:22.005Z,57.77
2018-03-07T05:28:53.023Z,51.63
2018-03-07T05:31:23.994Z,52.53
2018-03-07T05:33:55.066Z,48.80
2018-03-07T05:36:26.044Z,53.40
2018-03-07T05:38:57.044Z,54.43
2018-03-07T05:41:28.026Z,49.13
2018-03-07T05:43:59.017Z,49.73
2018-03-07T05:46:30.069Z,50.20
2018-03-07T05:49:01.060Z,51.70
2018-03-07T05:51:32.081Z,48.27
2018-03-07T05:54:03.105Z,46.30
2018-03-07T05:56:34.084Z,43.27
2018-03-07T05:59:05.058Z,43.70
2018-03-07T06:01:36.066Z,44.00
2018-03-07T06:04:07.014Z,45.90
2018-03-07T06:06:38.043Z,44.43
2018-03-07T06:09:09.025Z,41.03
2018-03-07T06:11:40.028Z,40.57
2018-03-07T06:14:10.995Z,37.40
2018-03-07T06:16:41.986Z,36.83
2018-03-07T06:19:12.994Z,39.57
2018-03-07T06:21:43.999Z,38.93
2018-03-07T06:24:15.028Z,35.63
2018-03-07T06:26:45.995Z,38.37
2018-03-07T06:29:17.015Z,37.27
2018-03-07T06:31:48.042Z,36.60
2018-03-07T06:34:19.069Z,34.27
2018-03-07T06:36:50.044Z,35.70
2018-03-07T06:39:21.074Z,34.80
2018-03-07T06:41:52.024Z,33.37
2018-03-07T06:44:23.011Z,35.03
2018-03-07T06:46:54.027Z,30.23
2018-03-07T06:49:25.044Z,31.93
2018-03-07T06:51:56.064Z,34.53
2018-03-07T06:54:27.044Z,30.23
2018-03-07T06:56:58.052Z,31.10
2018-03-07T06:59:29.025Z,33.83
2018-03-07T07:02:00.066Z,30.53
2018-03-07T07:04:31.070Z,29.50
2018-03-07T07:07:02.068Z,28.17
2018-03-07T07:09:33.109Z,28.20
2018-03-07T07:12:04.120Z,26.13
2018-03-07T07:14:35.135Z,25.60
2018-03-07T07:17:06.136Z,24.20
2018-03-07T07:19:37.132Z,26.73
2018-03-07T07:22:08.107Z,25.80
2018-03-07T07:24:39.092Z,24.90
2018-03-07T07:27:10.036Z,22.87
2018-03-07T07:29:41.032Z,22.23
2018-03-07T07:32:12.020Z,22.20
2018-03-07T07:34:43.043Z,19.13
2018-03-07T07:37:14.062Z,23.60
2018-03-07T07:39:45.011Z,20.23
2018-03-07T07:42:16.033Z,20.70
2018-03-07T07:44:46.997Z,19.97
2018-03-07T07:47:18.039Z,20.87
2018-03-07T07:49:49.011Z,22.67
2018-03-07T07:52:20.012Z,20.03
2018-03-07T07:54:51.003Z,20.23
2018-03-07T07:57:21.998Z,20.47
2018-03-07T07:59:52.975Z,19.33
2018-03-07T08:02:23.977Z,20.90
2018-03-07T08:04:55.018Z,21.23
2018-03-07T08:07:25.995Z,17.93
2018-03-07T08:09:57.032Z,19.17
2018-03-07T08:12:28.070Z,17.90
2018-03-07T08:14:59.039Z,16.60
2018-03-07T08:17:30.029Z,18.37
2018-03-07T08:20:01.073Z,16.83
2018-03-07T08:22:32.036Z,18.23
2018-03-07T08:25:03.073Z,19.40
2018-03-07T08:27:34.098Z,16.87
2018-03-07T08:30:05.065Z,17.93
2018-03-07T08:32:36.094Z,17.00
2018-03-07T08:35:07.087Z,17.63
2018-03-07T08:37:38.110Z,18.73
2018-03-07T08:40:09.085Z,17.33
2018-03-07T08:42:40.100Z,16.80
2018-03-07T08:45:11.146Z,17.30
2018-03-07T08:47:42.201Z,17.30
2018-03-07T08:50:13.220Z,15.63
2018-03-07T08:52:44.185Z,17.20
2018-03-07T08:55:15.169Z,23.33
2018-03-07T08:57:46.161Z,16.67
2018-03-07T09:00:17.116Z,17.43
2018-03-07T09:02:48.073Z,18.27
2018-03-07T09:05:19.061Z,16.33
2018-03-07T09:07:50.020Z,16.37
2018-03-07T09:10:21.065Z,16.10
2018-03-07T09:12:52.051Z,16.20
2018-03-07T09:15:23.056Z,14.43
2018-03-07T09:17:54.004Z,14.30
2018-03-07T09:20:24.977Z,15.30
2018-03-07T09:22:55.982Z,13.53
2018-03-07T09:25:26.973Z,14.63
2018-03-07T09:27:57.955Z,13.33
2018-03-07T09:30:28.896Z,13.87
2018-03-07T09:32:59.851Z,14.07
2018-03-07T09:35:30.901Z,13.97
2018-03-07T09:38:01.898Z,13.03
2018-03-07T09:40:32.845Z,13.40
2018-03-07T09:43:03.913Z,13.07
2018-03-07T09:45:34.890Z,13.03
2018-03-07T09:48:05.882Z,13.73
2018-03-07T09:50:36.941Z,13.43
2018-03-07T09:53:07.918Z,12.57
2018-03-07T09:55:38.926Z,14.83
2018-03-07T09:58:09.952Z,12.60
2018-03-07T10:00:40.942Z,12.77
2018-03-07T10:03:11.926Z,12.30
2018-03-07T10:05:42.921Z,12.07
2018-03-07T10:08:13.953Z,13.00
2018-03-07T10:10:44.949Z,13.50
2018-03-07T10:13:15.936Z,13.57
2018-03-07T10:15:46.949Z,13.80
2018-03-07T10:18:17.901Z,12.77
2018-03-07T10:20:48.919Z,13.70
2018-03-07T10:23:19.976Z,13.93
2018-03-07T10:25:50.963Z,13.50
2018-03-07T10:28:21.963Z,13.23
2018-03-07T10:30:52.947Z,12.37
2018-03-07T10:33:25.899Z,10.10
2018-03-07T10:35:56.864Z,10.57
2018-03-07T10:38:27.860Z,9.73
2018-03-07T10:40:58.870Z,10.63
2018-03-07T10:43:29.878Z,9.60
2018-03-07T10:46:00.904Z,9.23
2018-03-07T10:48:31.907Z,9.93
2018-03-07T10:51:02.879Z,9.20
2018-03-07T10:53:33.843Z,10.03
2018-03-07T10:56:04.845Z,10.07
2018-03-07T10:58:35.809Z,11.43
2018-03-07T11:01:06.815Z,10.17
2018-03-07T11:03:37.769Z,9.37
2018-03-07T11:06:08.772Z,8.87
2018-03-07T11:08:39.736Z,8.33
2018-03-07T11:11:10.737Z,12.20
2018-03-07T11:13:41.727Z,8.87
2018-03-07T11:16:12.715Z,10.57
2018-03-07T11:18:43.709Z,8.93
2018-03-07T11:21:14.727Z,8.63
2018-03-07T11:23:45.746Z,10.40
2018-03-07T11:26:16.778Z,8.93
2018-03-07T11:28:47.749Z,8.27
2018-03-07T11:31:18.810Z,10.10
2018-03-07T11:33:49.805Z,8.67
2018-03-07T11:36:20.822Z,9.10
2018-03-07T11:38:51.776Z,9.00
2018-03-07T11:41:22.799Z,9.67
2018-03-07T11:43:53.834Z,8.40
2018-03-07T11:46:24.808Z,9.30
2018-03-07T11:48:55.796Z,13.73
2018-03-07T11:51:26.808Z,9.93
2018-03-07T11:53:57.874Z,14.07
2018-03-07T11:56:28.868Z,8.20
2018-03-07T11:58:59.882Z,12.67
2018-03-07T12:01:30.902Z,9.03
2018-03-07T12:04:01.909Z,10.43
2018-03-07T12:06:32.964Z,8.23
2018-03-07T12:09:04.015Z,7.03
2018-03-07T12:11:35.030Z,11.10
2018-03-07T12:14:06.018Z,8.90
2018-03-07T12:16:37.027Z,7.53
2018-03-07T12:19:08.042Z,8.83
2018-03-07T12:21:39.093Z,7.43
2018-03-07T12:24:10.057Z,9.70
2018-03-07T12:26:41.071Z,12.30
2018-03-07T12:29:12.065Z,9.70
2018-03-07T12:31:43.054Z,8.70
2018-03-07T12:34:14.004Z,6.60
2018-03-07T12:36:45.049Z,6.20
2018-03-07T12:39:16.013Z,9.40
2018-03-07T12:41:47.053Z,7.67
2018-03-07T12:44:18.000Z,7.60
2018-03-07T12:46:48.990Z,5.17
2018-03-07T12:49:20.007Z,6.13
2018-03-07T12:51:50.994Z,6.10
2018-03-07T12:54:22.006Z,5.93
2018-03-07T12:56:53.001Z,9.53
2018-03-07T12:59:23.985Z,6.80
2018-03-07T13:01:55.043Z,4.47
2018-03-07T13:04:26.040Z,5.40
2018-03-07T13:06:57.199Z,6.57
2018-03-07T13:09:28.139Z,14.47
2018-03-07T13:11:59.105Z,12.20
2018-03-07T13:14:30.116Z,5.03
2018-03-07T13:17:01.108Z,6.80
2018-03-07T13:19:32.095Z,7.70
2018-03-07T13:22:03.140Z,7.03
2018-03-07T13:24:34.128Z,5.87
2018-03-07T13:27:05.101Z,5.20
2018-03-07T13:29:36.123Z,7.10
2018-03-07T13:32:07.118Z,3.30
2018-03-07T13:34:38.101Z,3.17
2018-03-07T13:37:09.128Z,2.13
2018-03-07T13:39:40.087Z,2.53
2018-03-07T13:42:11.081Z,2.60
2018-03-07T13:44:42.078Z,2.53
2018-03-07T13:47:13.093Z,3.20
2018-03-07T13:49:44.078Z,9.30
2018-03-07T13:52:15.143Z,3.90
2018-03-07T13:54:46.081Z,1.40
2018-03-07T13:57:17.094Z,2.00
2018-03-07T13:59:48.041Z,2.00
2018-03-07T14:02:19.080Z,3.30
2018-03-07T14:04:50.027Z,4.10
2018-03-07T14:07:21.049Z,1.13
2018-03-07T14:09:52.028Z,2.70
2018-03-07T14:12:23.036Z,3.40
2018-03-07T14:14:54.073Z,1.90
2018-03-07T14:17:25.056Z,1.00
2018-03-07T14:19:56.065Z,0.80
2018-03-07T14:22:27.060Z,1.47
2018-03-07T14:24:58.060Z,6.80
2018-03-07T14:27:29.095Z,1.00
2018-03-07T14:30:00.090Z,2.17
2018-03-07T14:32:31.085Z,1.00
2018-03-07T14:35:02.127Z,3.30
2018-03-07T14:37:33.132Z,1.77
2018-03-07T14:40:04.089Z,1.97
2018-03-07T14:42:35.087Z,1.10
2018-03-07T14:45:06.091Z,2.83
2018-03-07T14:47:37.053Z,1.70
2018-03-07T14:50:08.033Z,1.73
2018-03-07T14:52:39.020Z,3.07
2018-03-07T14:55:10.009Z,1.67
2018-03-07T14:57:41.025Z,1.70
2018-03-07T15:00:12.030Z,1.83
2018-03-07T15:02:43.001Z,1.77
2018-03-07T15:05:13.996Z,1.47
2018-03-07T15:07:44.990Z,2.73
2018-03-07T15:10:15.998Z,4.20
2018-03-07T15:12:46.985Z,2.57
2018-03-07T15:15:17.988Z,2.70
2018-03-07T15:17:48.998Z,2.97
2018-03-07T15:20:19.979Z,1.77
2018-03-07T15:22:51.011Z,2.37
2018-03-07T15:25:22.039Z,1.30
2018-03-07T15:27:53.058Z,5.40
2018-03-07T15:30:24.026Z,3.10
2018-03-07T15:32:55.014Z,1.63
2018-03-07T15:35:25.996Z,1.83
2018-03-07T15:37:56.994Z,2.23
2018-03-07T15:40:28.008Z,4.37
2018-03-07T15:42:58.948Z,4.93
2018-03-07T15:45:29.936Z,1.60
2018-03-07T15:48:00.910Z,2.13
2018-03-07T15:50:31.934Z,0.80
2018-03-07T15:53:02.917Z,0.97
2018-03-07T15:55:33.970Z,4.90
2018-03-07T15:58:05.008Z,3.10
2018-03-07T16:00:35.979Z,1.47
2018-03-07T16:03:06.983Z,2.50
2018-03-07T16:05:37.927Z,5.57
2018-03-07T16:08:08.902Z,3.80
2018-03-07T16:10:39.867Z,3.83
2018-03-07T16:13:10.853Z,3.27
2018-03-07T16:15:41.850Z,2.70
2018-03-07T16:18:12.795Z,1.93
2018-03-07T16:20:43.803Z,1.77
2018-03-07T16:23:14.777Z,3.13
2018-03-07T16:25:45.844Z,4.63
2018-03-07T16:28:16.812Z,1.80
2018-03-07T16:30:47.825Z,3.70
2018-03-07T16:33:18.803Z,1.50
2018-03-07T16:35:49.785Z,1.67
2018-03-07T16:38:20.766Z,5.40
2018-03-07T16:40:51.754Z,4.37
2018-03-07T16:43:22.724Z,3.63
2018-03-07T16:45:53.732Z,2.87
2018-03-07T16:48:24.712Z,3.00
2018-03-07T16:50:55.714Z,2.40
2018-03-07T16:53:26.717Z,3.43
2018-03-07T16:55:57.718Z,2.40
2018-03-07T16:58:28.679Z,1.93
2018-03-07T17:00:59.693Z,5.47
2018-03-07T17:03:30.718Z,2.90
2018-03-07T17:06:01.772Z,5.43
2018-03-07T17:08:32.752Z,3.13
2018-03-07T17:11:03.782Z,4.23
2018-03-07T17:13:34.740Z,4.57
2018-03-07T17:16:05.755Z,5.87
2018-03-07T17:18:36.759Z,4.43
2018-03-07T17:21:07.778Z,2.37
2018-03-07T17:26:40.854Z,2.00
2018-03-07T17:29:11.869Z,2.87
2018-03-07T17:31:42.885Z,2.83
2018-03-07T17:34:13.918Z,5.43
2018-03-07T17:36:44.896Z,2.20
2018-03-07T17:39:15.887Z,4.70
2018-03-07T17:41:46.835Z,3.27
2018-03-07T17:44:17.821Z,2.40
2018-03-07T17:46:48.854Z,3.90
2018-03-07T17:49:19.861Z,4.13
2018-03-07T17:51:50.931Z,3.33
2018-03-07T17:54:21.917Z,3.57
2018-03-07T17:56:52.957Z,5.20
2018-03-07T17:59:24.038Z,2.43
2018-03-07T18:01:55.077Z,3.83
2018-03-07T18:04:26.087Z,3.10
2018-03-07T18:06:57.159Z,2.87
2018-03-07T18:09:28.140Z,3.40
2018-03-07T18:11:59.180Z,6.33
2018-03-07T18:14:30.183Z,3.87
2018-03-07T18:17:01.254Z,4.53
2018-03-07T18:19:32.340Z,4.60
2018-03-07T18:22:03.372Z,2.63
2018-03-07T18:24:34.369Z,3.93
2018-03-07T18:27:05.358Z,2.80
2018-03-07T18:29:36.366Z,2.60
2018-03-07T18:32:07.397Z,4.50
2018-03-07T18:34:38.408Z,2.30
2018-03-07T18:37:09.437Z,4.47
2018-03-07T18:39:40.416Z,5.77
2018-03-07T18:42:11.384Z,5.50
2018-03-07T18:44:42.372Z,5.20
2018-03-07T18:47:13.374Z,9.30
2018-03-07T18:49:44.384Z,3.60
2018-03-07T18:52:15.367Z,2.97
2018-03-07T18:54:46.384Z,2.90
2018-03-07T18:57:17.377Z,4.33
2018-03-07T18:59:48.362Z,5.80
2018-03-07T19:02:19.408Z,3.90
2018-03-07T19:04:51.382Z,2.80
2018-03-07T19:07:22.433Z,4.17
2018-03-07T19:09:53.416Z,5.23
2018-03-07T19:12:24.402Z,3.07
2018-03-07T19:14:55.427Z,5.37
2018-03-07T19:17:26.423Z,3.37
2018-03-07T19:19:57.451Z,3.03
2018-03-07T19:22:28.475Z,2.90
2018-03-07T19:24:59.505Z,3.00
2018-03-07T19:27:30.486Z,2.47
2018-03-07T19:30:01.569Z,2.50
2018-03-07T19:32:32.597Z,3.30
2018-03-07T19:35:03.591Z,5.17
2018-03-07T19:37:34.628Z,3.60
2018-03-07T19:40:05.605Z,3.00
2018-03-07T19:42:36.618Z,3.83
2018-03-07T19:45:07.618Z,3.33
2018-03-07T19:47:38.630Z,3.70
2018-03-07T19:50:09.651Z,2.50
2018-03-07T19:52:40.632Z,3.67
2018-03-07T19:55:11.641Z,6.13
2018-03-07T19:57:42.697Z,3.77
2018-03-07T20:00:13.722Z,5.17
2018-03-07T20:02:44.708Z,4.60
2018-03-07T20:05:15.711Z,2.60
2018-03-07T20:07:46.727Z,3.13
2018-03-07T20:10:17.698Z,2.87
2018-03-07T20:12:48.700Z,2.60
2018-03-07T20:15:19.717Z,2.30
2018-03-07T20:17:50.743Z,2.73
2018-03-07T20:20:21.717Z,2.50
2018-03-07T20:22:52.716Z,5.70
2018-03-07T20:25:23.732Z,2.57
2018-03-07T20:27:54.755Z,2.80
2018-03-07T20:30:25.759Z,4.03
2018-03-07T20:32:56.754Z,3.73
2018-03-07T20:35:27.786Z,3.80
2018-03-07T20:37:58.745Z,2.47
2018-03-07T20:40:29.754Z,3.10
2018-03-07T20:43:00.739Z,1.87
2018-03-07T20:45:31.763Z,2.00
2018-03-07T20:48:02.790Z,3.10
2018-03-07T20:50:33.750Z,3.23
2018-03-07T20:53:04.755Z,2.63
2018-03-07T20:55:35.784Z,3.53
2018-03-07T20:58:06.795Z,2.70
2018-03-07T21:00:37.836Z,3.70
2018-03-07T21:03:08.897Z,3.13
2018-03-07T21:05:39.916Z,4.80
2018-03-07T21:08:10.934Z,2.67
2018-03-07T21:10:41.963Z,1.90
2018-03-07T21:13:12.927Z,2.77
2018-03-07T21:15:43.907Z,3.03
2018-03-07T21:18:14.907Z,2.20
2018-03-07T21:20:45.960Z,2.27
2018-03-07T21:23:16.939Z,2.07
2018-03-07T21:25:47.948Z,2.40
2018-03-07T21:28:18.999Z,2.20
2018-03-07T21:30:50.030Z,2.17
2018-03-07T21:33:21.227Z,2.13
2018-03-07T21:35:52.091Z,3.00
2018-03-07T21:38:23.138Z,2.40
2018-03-07T21:40:54.134Z,3.37
2018-03-07T21:43:25.153Z,1.80
2018-03-07T21:45:56.141Z,1.90
2018-03-07T21:48:27.213Z,2.23
2018-03-07T21:50:58.204Z,2.20
2018-03-07T21:53:29.249Z,1.90
2018-03-07T21:56:00.267Z,2.67
2018-03-07T21:58:31.261Z,2.70
2018-03-07T22:01:02.334Z,2.10
2018-03-07T22:03:33.333Z,2.00
2018-03-07T22:06:04.312Z,3.17
2018-03-07T22:08:35.339Z,2.17
2018-03-07T22:11:06.305Z,2.20
2018-03-07T22:13:37.289Z,2.30
2018-03-07T22:16:08.308Z,1.80
2018-03-07T22:18:39.277Z,3.10
2018-03-07T22:21:10.305Z,2.50
2018-03-07T22:23:41.317Z,3.17
2018-03-07T22:26:12.324Z,2.93
2018-03-07T22:28:43.323Z,3.93
2018-03-07T22:31:14.335Z,2.33
2018-03-07T22:33:45.312Z,2.10
2018-03-07T22:36:16.365Z,1.93
2018-03-07T22:38:47.351Z,2.47
2018-03-07T22:41:18.398Z,2.40
2018-03-07T22:43:49.427Z,2.37
2018-03-07T22:46:20.442Z,2.30
2018-03-07T22:48:51.450Z,2.77
2018-03-07T22:51:22.421Z,3.00
2018-03-07T22:53:53.467Z,3.93
2018-03-07T22:56:24.470Z,2.77
2018-03-07T22:58:55.475Z,2.60
2018-03-07T23:01:26.445Z,2.93
2018-03-07T23:03:57.466Z,2.60
2018-03-07T23:06:28.450Z,3.00
2018-03-07T23:08:59.485Z,3.60
2018-03-07T23:11:30.490Z,2.20
2018-03-07T23:14:01.514Z,2.33
2018-03-07T23:16:32.497Z,2.10
2018-03-07T23:19:03.571Z,3.10
2018-03-07T23:21:34.589Z,2.23
2018-03-07T23:24:05.561Z,2.37
2018-03-07T23:26:36.559Z,2.30
2018-03-07T23:29:07.544Z,2.73
2018-03-07T23:31:38.510Z,3.17
2018-03-07T23:34:09.534Z,2.47
2018-03-07T23:36:40.546Z,2.00
2018-03-07T23:39:11.540Z,2.33
2018-03-07T23:41:42.527Z,1.87
2018-03-07T23:44:13.498Z,2.10
2018-03-07T23:46:44.451Z,1.80
2018-03-07T23:49:15.454Z,2.00
2018-03-07T23:51:46.485Z,1.93
2018-03-07T23:54:17.452Z,1.97
2018-03-07T23:56:48.430Z,2.37
2018-03-07T23:59:19.412Z,1.93
